Klik op de webcam foto voor een grotere versieKlik op de webcam foto voor een grotere versie
Of klik hier voor
de webcam video


Weerstation
Wilsele-Leuven:Website of another weatherstation



Het weer levert geen direct gevaar op.    Er zijn geen waarschuwingen afgegeven.

Nabijgelegen vliegvelden - METAR rapporten

   
EBBR - Vaartkom-Leuven
Gewijzigd: 10-12-2018 00:50
Helder    Wind: Westen 13 km/h
Helder
Wind: Wind: Westen 13 km/h
Temperatuur: 5°C
Voelt als: 2°C
Dauwpunt: 3°C
Vochtigheid: 87%
Barometer: 1019 hPa
Zicht: meer dan 10 km
Bewolking: Helder
EBBR 092350Z 27007KT CAVOK 05/03 Q1019 NOSIG
EBAW - Antwerp
Gewijzigd: 10-12-2018 00:50
Gedeeltelijk bewolkt    Wind: NNW 13 km/h
Gedeeltelijk bewolkt
Wind: Wind: NNW 13 km/h
Temperatuur: 7°C
Voelt als: 4°C
Dauwpunt: 2°C
Vochtigheid: 71%
Barometer: 1019 hPa
Bewolking: Gedeeltelijk bewolkt
Zicht: meer dan 10 km
Bewolking: Gedeeltelijk bewolkt 762 m,
Gedeeltelijk bewolkt 1127.8 m
EBAW 092350Z AUTO 33007KT 9999 // SCT025/// SCT037/// 07/02 Q1019
EBLG - Liège
Gewijzigd: 10-12-2018 00:50
Grotendeels bewolkt    Wind: Westen 17 km/h
Grotendeels bewolkt
Wind: Wind: Westen 17 km/h
Temperatuur: 5°C
Voelt als: 2°C
Dauwpunt: 3°C
Vochtigheid: 87%
Barometer: 1018 hPa
Bewolking: Grotendeels bewolkt
Zicht: meer dan 10 km
Bewolking: Licht bewolkt 182.9 m,
Gedeeltelijk bewolkt 548.6 m,
Grotendeels bewolkt 1402.1 m
EBLG 092350Z 27009KT 9999 FEW006 SCT018 BKN046 05/03 Q1018 TEMPO 30015G25KT SHRA
EBCV - Mons/Bergen
Gewijzigd: 10-12-2018 00:55
Gedeeltelijk bewolkt    Wind: Westen 15 km/h
Gedeeltelijk bewolkt
Wind: Wind: Westen 15 km/h
Temperatuur: 6°C
Voelt als: 3°C
Dauwpunt: 4°C
Vochtigheid: 87%
Barometer: 1021 hPa
Bewolking: Gedeeltelijk bewolkt
Zicht: meer dan 10 km
Bewolking: Licht bewolkt 853.4 m,
Gedeeltelijk bewolkt 1341.1 m
EBCV 092355Z AUTO 27008KT 9999 FEW028/// SCT044/// 06/04 Q1021 BLU
EHBK - Maastricht
Gewijzigd: 10-12-2018 00:55
Gedeeltelijk bewolkt    Wind: Westen 15 km/h
Gedeeltelijk bewolkt
Wind: Wind: Westen 15 km/h
Temperatuur: 5°C
Voelt als: 2°C
Dauwpunt: 3°C
Vochtigheid: 87%
Barometer: 1017 hPa
Bewolking: Gedeeltelijk bewolkt
Zicht: meer dan 10 km
Bewolking: Gedeeltelijk bewolkt
EHBK 092355Z AUTO 27008KT 230V310 9999 NSC 05/03 Q1017
ELLX - Luxemburg
Gewijzigd: 10-12-2018 00:50
Licht bewolkt    Wind: Westen 19 km/h
Licht bewolkt
Wind: Wind: Westen 19 km/h
Temperatuur: 4°C
Voelt als: 0°C
Dauwpunt: 2°C
Vochtigheid: 87%
Barometer: 1018 hPa
Bewolking: Licht bewolkt
Zicht: meer dan 10 km
Bewolking: Licht bewolkt 1066.8 m
ELLX 092350Z 27010KT 9999 FEW035 04/02 Q1018 NOSIG
EBOS - Oostende
Gewijzigd: 10-12-2018 00:50
Gedeeltelijk bewolkt    Wind: NW 32 km/h
Gedeeltelijk bewolkt
Wind: Wind: NW 32 km/h
Temperatuur: 8°C
Voelt als: 4°C
Dauwpunt: 3°C
Vochtigheid: 71%
Barometer: 1020 hPa
Bewolking: Gedeeltelijk bewolkt
Zicht: meer dan 10 km
Bewolking: Gedeeltelijk bewolkt 762 m,
Gedeeltelijk bewolkt 1371.6 m
EBOS 092350Z 31017KT 9999 SCT025 SCT045 08/03 Q1020 NOSIG
  

Script ontwikkeld door  Saratoga-weather.org Aangepast voor de template door  Weerstation Leuven

U vindt ons ook hier:

UK Metoffice

WeatherCloud

European Weather Network

Weather Underground

Bernelux Weather Network

AWEKAS

WeatherlinkIP

Citizen Weather Observer Program (CWOP)

HAMweather, WeatherForYou, PWS Weather

Apparatuur in gebruik:

Weer-station
Davis VUE

Weer-programma
Meteobridge

Weer-computer
D-Link DIR-505

Webleverancier
Robohost

Davis VUE

Meteobridge

D-Link DIR-505

Robohost